ADDS METAR Data INFO
IDs: Format: Raw Decoded Include TAF

Data at: 1847 UTC 17 Oct 2017

KHRO 171753Z AUTO 16007KT 10SM CLR 18/03 A3030 RMK AO2 SLP258 T01780033 10183 20039 58016
KHRO 171653Z AUTO 16011KT 10SM CLR 17/03 A3033 RMK AO2 SLP269 T01670028
KHRO 171553Z AUTO 16011KT 10SM CLR 15/04 A3035 RMK AO2 SLP274 T01500039
KHRO 171453Z AUTO 17008KT 10SM CLR 12/05 A3035 RMK AO2 SLP277 T01220050 53011
KHRO 171353Z AUTO 14005KT 10SM CLR 07/06 A3034 RMK AO2 SLP275 T00720056
KHRO 171253Z AUTO 11005KT 10SM CLR 05/04 A3033 RMK AO2 SLP272 T00500039
KHRO 171153Z AUTO 12004KT 10SM CLR 04/03 A3032 RMK AO2 SLP268 T00440033 10089 20039 51007
KHRO 171053Z AUTO 13004KT 10SM CLR 04/03 A3032 RMK AO2 SLP265 T00440033
KHRO 170953Z AUTO 12003KT 10SM CLR 04/03 A3031 RMK AO2 SLP261 T00440033
KHRO 170853Z AUTO 00000KT 10SM CLR 04/03 A3030 RMK AO2 SLP257 T00440033 58005
KHRO 170753Z AUTO 13003KT 10SM CLR 04/03 A3030 RMK AO2 SLP259 T00440033
KHRO 170653Z AUTO 00000KT 10SM CLR 07/04 A3031 RMK AO2 SLP260 T00670039
KHRO 170553Z AUTO 23003KT 10SM CLR 07/03 A3031 RMK AO2 SLP262 T00720033 10139 20061 401940044 56003
KHRO 170453Z AUTO 00000KT 10SM CLR 08/04 A3031 RMK AO2 SLP263 T00780039
KHRO 170353Z AUTO 17003KT 10SM CLR 08/03 A3032 RMK AO2 SLP264 T00830033
KHRO 170253Z AUTO 00000KT 10SM CLR 09/03 A3032 RMK AO2 SLP266 T00890033 51005
KHRO 170153Z AUTO 00000KT 10SM CLR 09/03 A3032 RMK AO2 SLP266 T00940033
KHRO 170053Z AUTO 00000KT 10SM CLR 11/03 A3032 RMK AO2 SLP268 T01110028
KHRO 162353Z AUTO 00000KT 10SM CLR 14/02 A3031 RMK AO2 SLP262 T01390022 10194 20139 55006
KHRO 162253Z AUTO 00000KT 10SM CLR 18/01 A3030 RMK AO2 SLP259 T01780006
KHRO 162153Z AUTO 00000KT 10SM CLR 18/01 A3031 RMK AO2 SLP262 T01830006
KHRO 162053Z AUTO VRB03KT 10SM CLR 19/01 A3032 RMK AO2 SLP266 T01890011 56029
KHRO 161953Z AUTO 01007KT 10SM CLR 19/01 A3035 RMK AO2 SLP275 T01890006
KHRO 161853Z AUTO 06008KT 030V090 10SM CLR 18/02 A3038 RMK AO2 SLP283 T01830017
KHRO 161753Z AUTO 09009KT 10SM CLR 17/01 A3041 RMK AO2 SLP296 T01720006 10178 20044 58007
KHRO 161653Z AUTO 09008KT 10SM CLR 17/01 A3043 RMK AO2 SLP303 T01670006
KHRO 161553Z AUTO VRB06KT 10SM CLR 14/03 A3044 RMK AO2 SLP306 T01440028
KHRO 161453Z AUTO 05006KT 10SM CLR 13/04 A3044 RMK AO2 SLP305 T01280044 53011
KHRO 161353Z AUTO 32003KT 10SM CLR 10/06 A3042 RMK AO2 SLP301 T01000056
KHRO 161253Z AUTO 00000KT 10SM CLR 06/04 A3041 RMK AO2 SLP298 T00560044
KHRO 161153Z AUTO 29003KT 10SM CLR 06/04 A3040 RMK AO2 SLP295 T00560044 10083 20050 52008
KHRO 161053Z AUTO 32004KT 10SM CLR 06/04 A3040 RMK AO2 SLP291 T00610039
KHRO 160953Z AUTO 32005KT 10SM CLR 07/04 A3038 RMK AO2 SLP285 T00670044
KHRO 160853Z AUTO 31004KT 10SM CLR 07/04 A3038 RMK AO2 SLP283 T00670044 50002
KHRO 160753Z AUTO 30004KT 10SM CLR 07/05 A3038 RMK AO2 SLP283 T00720050
KHRO 160653Z AUTO 30004KT 10SM CLR 08/05 A3037 RMK AO2 SLP281 T00780050